Volgo-don 159 — VD159 — position and weather

sailwx.info

Track history (hours):
 
Tides and Currents Weather Stations Pressure Air Temp Water Temp Dewpoint Dewpoint Depression Visibility Wind Speed Wind Dir Waves Ship Positions

Volgo-don 159

Last reported at 2017-Oct-23 02:36 UTC. Time now 2017-Nov-24 09:31 UTC.
Position N 45°30' E 036°49'.
Warning: this ship's position is 32 days out of date.

Length 138 m; draft 2.4 m.

Type: Cargo ship. MMSI: 273344210.

Date/timePositionNaut miles runAvg speedWind from/ knotsBaromVisibWave heightAir tempDewpointWater temp
2017-Oct-23 02:36N 45°30' E 036°49'1 6.7
2017-Oct-23 02:29N 45°30' E 036°48'3 6.7
2017-Oct-23 02:00N 45°27' E 036°45'3 6.7
2017-Oct-23 01:30N 45°25' E 036°41'3 6.3
2017-Oct-23 01:00N 45°22' E 036°40'2 4.8
2017-Oct-23 00:30N 45°20' E 036°38'2 5.0
2017-Oct-23 00:00N 45°19' E 036°34'3 5.9
2017-Oct-22 23:26N 45°18' E 036°30'2 5.6
2017-Oct-22 23:00N 45°16' E 036°28'2 3.6
2017-Oct-22 22:27N 45°14' E 036°29'1 0.6
2017-Oct-22 20:26N 45°13' E 036°30'0 0.0
2017-Oct-22 18:53N 45°13' E 036°30'0 0.0
2017-Oct-22 18:29N 45°13' E 036°30'0 0.1
2017-Oct-22 16:34N 45°13' E 036°30'0 0.3
2017-Oct-22 14:59N 45°13' E 036°30'3 0.9
2017-Oct-22 11:04N 45°10' E 036°32'0 0.0
2017-Oct-22 10:53N 45°10' E 036°32'0 0.0
2017-Oct-22 10:20N 45°10' E 036°32'0 0.0
2017-Oct-22 10:00N 45°10' E 036°32'0 0.0
2017-Oct-22 06:12N 45°10' E 036°33'0 0.1
2017-Oct-22 05:47N 45°10' E 036°33'0 0.0
2017-Oct-22 04:52N 45°10' E 036°33'0 0.1
2017-Oct-22 04:30N 45°10' E 036°32'0 0.0
2017-Oct-22 03:07N 45°10' E 036°32'0 0.0
2017-Oct-22 02:48N 45°10' E 036°32'0 0.0
2017-Oct-22 02:31N 45°10' E 036°32'0 0.6
2017-Oct-22 01:52N 45°10' E 036°32'0 0.0
2017-Oct-22 01:21N 45°10' E 036°32'0 0.0
2017-Oct-21 23:15N 45°10' E 036°32'0 0.0
2017-Oct-21 23:00N 45°10' E 036°32'0 0.0
2017-Oct-21 22:30N 45°10' E 036°32'0 0.0
2017-Oct-21 21:57N 45°10' E 036°32'0 0.0
2017-Oct-21 21:29N 45°10' E 036°32'1 0.6
2017-Oct-21 20:15N 45°10' E 036°31'2 6.6
2017-Oct-21 20:00N 45°11' E 036°29'3 6.2
2017-Oct-21 19:30N 45°14' E 036°28'3 6.4
2017-Oct-21 19:00N 45°17' E 036°29'3 5.5
2017-Oct-21 18:31N 45°19' E 036°31'2 4.9
2017-Oct-21 18:00N 45°19' E 036°35'3 5.4
2017-Oct-21 17:30N 45°20' E 036°38'2 4.9
2017-Oct-21 17:00N 45°22' E 036°40'3 6.9
2017-Oct-21 16:31N 45°26' E 036°42'3 7.0
2017-Oct-21 16:00N 45°28' E 036°45'4 0.1
2017-Oct-20 07:32N 45°30' E 036°50'0 0.0
2017-Oct-20 07:19N 45°30' E 036°50'0 0.0
2017-Oct-20 06:58N 45°30' E 036°50'0 0.0
2017-Oct-20 06:28N 45°30' E 036°50'0 0.0
2017-Oct-20 05:55N 45°30' E 036°50'0 0.0
2017-Oct-19 14:37N 45°30' E 036°50'0 0.0
2017-Oct-19 14:16N 45°30' E 036°50'0 0.0
2017-Oct-19 06:25N 45°30' E 036°50'0 0.0
2017-Oct-18 08:00N 45°30' E 036°50'0 0.0
2017-Oct-18 07:17N 45°30' E 036°50'0 0.0
2017-Oct-18 06:49N 45°30' E 036°50'0 0.0
2017-Oct-18 05:39N 45°30' E 036°50'0 0.0
2017-Oct-17 10:52N 45°30' E 036°50'0 0.0
2017-Oct-17 04:39N 45°30' E 036°50'0 0.0
2017-Oct-16 05:34N 45°30' E 036°50'0 0.1
2017-Oct-16 05:23N 45°30' E 036°50'0 0.0
2017-Oct-16 04:55N 45°30' E 036°50'0 0.0
2017-Oct-16 04:30N 45°30' E 036°50'0 0.0
2017-Oct-16 02:53N 45°30' E 036°50'0 0.0
2017-Oct-16 02:28N 45°30' E 036°50'0 0.0
2017-Oct-16 01:59N 45°30' E 036°50'0 0.0
2017-Oct-16 01:13N 45°30' E 036°50'0 0.0
2017-Oct-16 01:00N 45°30' E 036°50'0 0.0
2017-Oct-16 00:30N 45°30' E 036°50'0 0.0
2017-Oct-15 23:58N 45°30' E 036°50'0 0.0
2017-Oct-15 23:29N 45°30' E 036°50'0 0.0
2017-Oct-15 23:00N 45°30' E 036°50'0 0.0
2017-Oct-15 22:25N 45°30' E 036°50'0 0.1
2017-Oct-15 21:58N 45°30' E 036°50'0 0.1
2017-Oct-15 21:28N 45°30' E 036°50'0 0.0
2017-Oct-15 21:00N 45°30' E 036°50'0 0.0
2017-Oct-15 20:30N 45°30' E 036°50'0 0.0
2017-Oct-15 19:57N 45°30' E 036°50'0 0.0
2017-Oct-15 19:30N 45°30' E 036°50'0 0.0
2017-Oct-15 19:00N 45°30' E 036°50'0 0.0
2017-Oct-15 18:29N 45°30' E 036°50'0 0.0
2017-Oct-15 17:59N 45°30' E 036°50'0 0.0
2017-Oct-15 17:30N 45°30' E 036°50'0 0.0
2017-Oct-15 17:00N 45°30' E 036°50'0 0.0
2017-Oct-15 16:30N 45°30' E 036°50'0 0.0
2017-Oct-15 16:00N 45°30' E 036°50'0 0.0
2017-Oct-15 15:30N 45°30' E 036°50'0 0.0
2017-Oct-15 15:00N 45°30' E 036°50'0 0.0
2017-Oct-15 14:00N 45°30' E 036°50'0 0.1
2017-Oct-15 13:23N 45°30' E 036°50'0 0.0
2017-Oct-15 13:00N 45°30' E 036°50'0 0.0
2017-Oct-15 12:30N 45°30' E 036°50'0 0.0
2017-Oct-15 12:00N 45°30' E 036°50'0 0.0
2017-Oct-15 11:30N 45°30' E 036°50'0 0.0
2017-Oct-15 11:00N 45°30' E 036°50'0 0.0
2017-Oct-15 10:30N 45°30' E 036°50'0 0.0
2017-Oct-15 10:00N 45°30' E 036°50'0 0.0
2017-Oct-15 09:30N 45°30' E 036°50'0 0.0
2017-Oct-15 09:00N 45°30' E 036°50'0 0.0
2017-Oct-15 08:30N 45°30' E 036°50'0 0.0
2017-Oct-15 07:20N 45°30' E 036°50'0 0.0
2017-Oct-15 06:49N 45°30' E 036°50'0 0.0
2017-Oct-15 06:29N 45°30' E 036°50'0 0.0
2017-Oct-15 05:56N 45°30' E 036°50'0 0.0
2017-Oct-15 05:28N 45°30' E 036°50'0 0.0
2017-Oct-15 05:00N 45°30' E 036°50'0 0.0
2017-Oct-15 04:27N 45°30' E 036°50'0 0.0
2017-Oct-15 02:56N 45°30' E 036°50'0 0.0
2017-Oct-15 02:30N 45°30' E 036°50'0 0.0
2017-Oct-15 01:51N 45°30' E 036°50'0 0.0
2017-Oct-15 01:30N 45°30' E 036°50'0 0.0
2017-Oct-15 01:00N 45°30' E 036°50'0 0.0
2017-Oct-15 00:00N 45°30' E 036°50'0 0.0
2017-Oct-14 22:43N 45°30' E 036°50'0 0.0
2017-Oct-14 22:24N 45°30' E 036°50'0 0.0
2017-Oct-14 22:00N 45°30' E 036°50'0 0.0
2017-Oct-14 21:30N 45°30' E 036°50'0 0.0
2017-Oct-14 20:59N 45°30' E 036°50'0 0.0
2017-Oct-14 20:30N 45°30' E 036°50'0 0.0
2017-Oct-14 19:28N 45°30' E 036°50'0 0.0
2017-Oct-14 19:00N 45°30' E 036°50'0 0.0
2017-Oct-14 18:30N 45°30' E 036°50'0 0.0
2017-Oct-14 17:41N 45°30' E 036°50'0 0.0
2017-Oct-14 17:30N 45°30' E 036°50'0 0.0
2017-Oct-14 17:00N 45°30' E 036°50'0 0.0
2017-Oct-14 16:05N 45°30' E 036°50'0 0.1
2017-Oct-14 16:00N 45°30' E 036°50'0 0.0
2017-Oct-14 15:30N 45°30' E 036°50'0 0.0
2017-Oct-14 15:00N 45°30' E 036°50'  
Track history (hours):
 
Tides and Currents Weather Stations Pressure Air Temp Water Temp Dewpoint Dewpoint Depression Visibility Wind Speed Wind Dir Waves Ship Positions

Volgo-don 159

Last reported at 2017-Oct-23 02:36 UTC. Time now 2017-Nov-24 09:31 UTC.
Position N 45°30' E 036°49'.
Warning: this ship's position is 32 days out of date.

Length 138 m; draft 2.4 m.

Type: Cargo ship. MMSI: 273344210.

Date/timePositionNaut miles runAvg speedWind from/ knotsBaromVisibWave heightAir tempDewpointWater temp
2017-Oct-23 02:36N 45°30' E 036°49'1 6.7
2017-Oct-23 02:29N 45°30' E 036°48'3 6.7
2017-Oct-23 02:00N 45°27' E 036°45'3 6.7
2017-Oct-23 01:30N 45°25' E 036°41'3 6.3
2017-Oct-23 01:00N 45°22' E 036°40'2 4.8
2017-Oct-23 00:30N 45°20' E 036°38'2 5.0
2017-Oct-23 00:00N 45°19' E 036°34'3 5.9
2017-Oct-22 23:26N 45°18' E 036°30'2 5.6
2017-Oct-22 23:00N 45°16' E 036°28'2 3.6
2017-Oct-22 22:27N 45°14' E 036°29'1 0.6
2017-Oct-22 20:26N 45°13' E 036°30'0 0.0
2017-Oct-22 18:53N 45°13' E 036°30'0 0.0
2017-Oct-22 18:29N 45°13' E 036°30'0 0.1
2017-Oct-22 16:34N 45°13' E 036°30'0 0.3
2017-Oct-22 14:59N 45°13' E 036°30'3 0.9
2017-Oct-22 11:04N 45°10' E 036°32'0 0.0
2017-Oct-22 10:53N 45°10' E 036°32'0 0.0
2017-Oct-22 10:20N 45°10' E 036°32'0 0.0
2017-Oct-22 10:00N 45°10' E 036°32'0 0.0
2017-Oct-22 06:12N 45°10' E 036°33'0 0.1
2017-Oct-22 05:47N 45°10' E 036°33'0 0.0
2017-Oct-22 04:52N 45°10' E 036°33'0 0.1
2017-Oct-22 04:30N 45°10' E 036°32'0 0.0
2017-Oct-22 03:07N 45°10' E 036°32'0 0.0
2017-Oct-22 02:48N 45°10' E 036°32'0 0.0
2017-Oct-22 02:31N 45°10' E 036°32'0 0.6
2017-Oct-22 01:52N 45°10' E 036°32'0 0.0
2017-Oct-22 01:21N 45°10' E 036°32'0 0.0
2017-Oct-21 23:15N 45°10' E 036°32'0 0.0
2017-Oct-21 23:00N 45°10' E 036°32'0 0.0
2017-Oct-21 22:30N 45°10' E 036°32'0 0.0
2017-Oct-21 21:57N 45°10' E 036°32'0 0.0
2017-Oct-21 21:29N 45°10' E 036°32'1 0.6
2017-Oct-21 20:15N 45°10' E 036°31'2 6.6
2017-Oct-21 20:00N 45°11' E 036°29'3 6.2
2017-Oct-21 19:30N 45°14' E 036°28'3 6.4
2017-Oct-21 19:00N 45°17' E 036°29'3 5.5
2017-Oct-21 18:31N 45°19' E 036°31'2 4.9
2017-Oct-21 18:00N 45°19' E 036°35'3 5.4
2017-Oct-21 17:30N 45°20' E 036°38'2 4.9
2017-Oct-21 17:00N 45°22' E 036°40'3 6.9
2017-Oct-21 16:31N 45°26' E 036°42'3 7.0
2017-Oct-21 16:00N 45°28' E 036°45'4 0.1
2017-Oct-20 07:32N 45°30' E 036°50'0 0.0
2017-Oct-20 07:19N 45°30' E 036°50'0 0.0
2017-Oct-20 06:58N 45°30' E 036°50'0 0.0
2017-Oct-20 06:28N 45°30' E 036°50'0 0.0
2017-Oct-20 05:55N 45°30' E 036°50'0 0.0
2017-Oct-19 14:37N 45°30' E 036°50'0 0.0
2017-Oct-19 14:16N 45°30' E 036°50'0 0.0
2017-Oct-19 06:25N 45°30' E 036°50'0 0.0
2017-Oct-18 08:00N 45°30' E 036°50'0 0.0
2017-Oct-18 07:17N 45°30' E 036°50'0 0.0
2017-Oct-18 06:49N 45°30' E 036°50'0 0.0
2017-Oct-18 05:39N 45°30' E 036°50'0 0.0
2017-Oct-17 10:52N 45°30' E 036°50'0 0.0
2017-Oct-17 04:39N 45°30' E 036°50'0 0.0
2017-Oct-16 05:34N 45°30' E 036°50'0 0.1
2017-Oct-16 05:23N 45°30' E 036°50'0 0.0
2017-Oct-16 04:55N 45°30' E 036°50'0 0.0
2017-Oct-16 04:30N 45°30' E 036°50'0 0.0
2017-Oct-16 02:53N 45°30' E 036°50'0 0.0
2017-Oct-16 02:28N 45°30' E 036°50'0 0.0
2017-Oct-16 01:59N 45°30' E 036°50'0 0.0
2017-Oct-16 01:13N 45°30' E 036°50'0 0.0
2017-Oct-16 01:00N 45°30' E 036°50'0 0.0
2017-Oct-16 00:30N 45°30' E 036°50'0 0.0
2017-Oct-15 23:58N 45°30' E 036°50'0 0.0
2017-Oct-15 23:29N 45°30' E 036°50'0 0.0
2017-Oct-15 23:00N 45°30' E 036°50'0 0.0
2017-Oct-15 22:25N 45°30' E 036°50'0 0.1
2017-Oct-15 21:58N 45°30' E 036°50'0 0.1
2017-Oct-15 21:28N 45°30' E 036°50'0 0.0
2017-Oct-15 21:00N 45°30' E 036°50'0 0.0
2017-Oct-15 20:30N 45°30' E 036°50'0 0.0
2017-Oct-15 19:57N 45°30' E 036°50'0 0.0
2017-Oct-15 19:30N 45°30' E 036°50'0 0.0
2017-Oct-15 19:00N 45°30' E 036°50'0 0.0
2017-Oct-15 18:29N 45°30' E 036°50'0 0.0
2017-Oct-15 17:59N 45°30' E 036°50'0 0.0
2017-Oct-15 17:30N 45°30' E 036°50'0 0.0
2017-Oct-15 17:00N 45°30' E 036°50'0 0.0
2017-Oct-15 16:30N 45°30' E 036°50'0 0.0
2017-Oct-15 16:00N 45°30' E 036°50'0 0.0
2017-Oct-15 15:30N 45°30' E 036°50'0 0.0
2017-Oct-15 15:00N 45°30' E 036°50'0 0.0
2017-Oct-15 14:00N 45°30' E 036°50'0 0.1
2017-Oct-15 13:23N 45°30' E 036°50'0 0.0
2017-Oct-15 13:00N 45°30' E 036°50'0 0.0
2017-Oct-15 12:30N 45°30' E 036°50'0 0.0
2017-Oct-15 12:00N 45°30' E 036°50'0 0.0
2017-Oct-15 11:30N 45°30' E 036°50'0 0.0
2017-Oct-15 11:00N 45°30' E 036°50'0 0.0
2017-Oct-15 10:30N 45°30' E 036°50'0 0.0
2017-Oct-15 10:00N 45°30' E 036°50'0 0.0
2017-Oct-15 09:30N 45°30' E 036°50'0 0.0
2017-Oct-15 09:00N 45°30' E 036°50'0 0.0
2017-Oct-15 08:30N 45°30' E 036°50'0 0.0
2017-Oct-15 07:20N 45°30' E 036°50'0 0.0
2017-Oct-15 06:49N 45°30' E 036°50'0 0.0
2017-Oct-15 06:29N 45°30' E 036°50'0 0.0
2017-Oct-15 05:56N 45°30' E 036°50'0 0.0
2017-Oct-15 05:28N 45°30' E 036°50'0 0.0
2017-Oct-15 05:00N 45°30' E 036°50'0 0.0
2017-Oct-15 04:27N 45°30' E 036°50'0 0.0
2017-Oct-15 02:56N 45°30' E 036°50'0 0.0
2017-Oct-15 02:30N 45°30' E 036°50'0 0.0
2017-Oct-15 01:51N 45°30' E 036°50'0 0.0
2017-Oct-15 01:30N 45°30' E 036°50'0 0.0
2017-Oct-15 01:00N 45°30' E 036°50'0 0.0
2017-Oct-15 00:00N 45°30' E 036°50'0 0.0
2017-Oct-14 22:43N 45°30' E 036°50'0 0.0
2017-Oct-14 22:24N 45°30' E 036°50'0 0.0
2017-Oct-14 22:00N 45°30' E 036°50'0 0.0
2017-Oct-14 21:30N 45°30' E 036°50'0 0.0
2017-Oct-14 20:59N 45°30' E 036°50'0 0.0
2017-Oct-14 20:30N 45°30' E 036°50'0 0.0
2017-Oct-14 19:28N 45°30' E 036°50'0 0.0
2017-Oct-14 19:00N 45°30' E 036°50'0 0.0
2017-Oct-14 18:30N 45°30' E 036°50'0 0.0
2017-Oct-14 17:41N 45°30' E 036°50'0 0.0
2017-Oct-14 17:30N 45°30' E 036°50'0 0.0
2017-Oct-14 17:00N 45°30' E 036°50'0 0.0
2017-Oct-14 16:05N 45°30' E 036°50'0 0.1
2017-Oct-14 16:00N 45°30' E 036°50'0 0.0
2017-Oct-14 15:30N 45°30' E 036°50'0 0.0
2017-Oct-14 15:00N 45°30' E 036°50'  

Dump ship's entire track history